• Join FlightAware (Why Join?)
  • Login
  • US Flag 
06:17PM EST


 

Airport Tracker/Info


-or-


 

Live Flight TrackerFlight Track Log ✈ SKW6492 ✈ 12-Oct-2013 ✈ KDEN - KCOD

Flight Track Log - Related Links

Times and Time Zones

All times are in EDT time to prevent confusion due to time zone crossing. See the SKW6492 flight status page for this flight to view local times or setup timezone preferences in your user account.

Time Position Orientation Groundspeed Altitude Reporting Facility
EDT Latitude Longitude Course Direction KTS MPH feet Rate Location/Type
09:34PM 39.8833 -104.5833 346° North 182 209 6,800  Level Denver TRACON
09:35PM 39.9000 -104.5000 75° East 245 282 9,000 2,220 Climbing Denver TRACON
09:36PM 39.9333 -104.4167 62° Northeast 298 343 11,100 2,280 Climbing Denver TRACON
09:37PM 40.2180 -104.9793 346° North  Level Estimated
09:37PM 40.0000 -104.3833 21° North 309 356 13,600  Level Denver TRACON
09:38PM 40.3069 -105.0564 348° North  Level Estimated
09:39PM 40.3958 -105.1336 346° North  Level Estimated
09:39PM 40.1428 -104.4617 337° Northwest 322 371 16,900  Level Denver Center
09:40PM 40.2153 -104.5300 324° Northwest 324 373 18,500 1,380 Climbing Denver Center
09:41PM 40.2900 -104.5992 325° Northwest 329 379 19,800 1,380 Climbing Denver Center
09:42PM 40.3872 -104.6547 336° Northwest 354 407 21,400 1,320 Climbing Denver Center
09:43PM 40.4786 -104.7003 339° North 356 410 22,600 1,080 Climbing Denver Center
09:44PM 40.5753 -104.7467 340° North 369 425 23,700 960 Climbing Denver Center
09:45PM 40.6767 -104.7972 339° North 376 433 24,600 840 Climbing Denver Center
09:46PM 40.7747 -104.8411 341° North 372 428 25,500 840 Climbing Denver Center
09:47PM 40.8772 -104.8922 339° North 390 449 26,400 780 Climbing Denver Center
09:48PM 40.9794 -104.9439 339° North 394 453 27,200 720 Climbing Denver Center
09:49PM 41.0847 -104.9936 340° North 397 457 27,900 720 Climbing Denver Center
09:50PM 41.1858 -105.0450 339° North 403 464 28,700 660 Climbing Denver Center
09:51PM 41.3044 -105.1044 339° North 409 471 29,300 540 Climbing Denver Center
09:52PM 41.4078 -105.1550 340° North 414 476 29,800 720 Climbing Denver Center
09:53PM 41.5281 -105.2178 339° North 414 476 30,800 900 Climbing Denver Center
09:54PM 41.6144 -105.2914 328° Northwest 390 449 31,700 540 Climbing Denver Center
09:55PM 41.6944 -105.3742 322° Northwest 380 437 32,000 120 Climbing Denver Center
09:56PM 41.7886 -105.4778 321° Northwest 389 448 32,000  Level Denver Center
09:57PM 41.8733 -105.5694 321° Northwest 403 464 32,000  Level Denver Center
09:58PM 41.9581 -105.6628 321° Northwest 409 471 32,000  Level Denver Center
09:59PM 42.0597 -105.7733 321° Northwest 417 480 32,000  Level Denver Center
10:00PM 42.1439 -105.8675 320° Northwest 411 473 32,000  Level Denver Center
10:01PM 42.2303 -105.9619 321° Northwest 415 478 32,000  Level Denver Center
10:02PM 42.3289 -106.0722 320° Northwest 413 475 32,000  Level Denver Center
10:03PM 42.4131 -106.1656 321° Northwest 408 470 32,000  Level Denver Center
10:04PM 42.4953 -106.2589 320° Northwest 405 466 32,000  Level Denver Center
10:05PM 42.5925 -106.3667 321° Northwest 404 465 32,000  Level Denver Center
10:06PM 42.6750 -106.4594 320° Northwest 403 464 32,000  Level Denver Center
10:07PM 42.7581 -106.5531 320° Northwest 403 464 32,000  Level Denver Center
10:08PM 42.8536 -106.6617 320° Northwest 403 464 32,000  Level Denver Center
10:09PM 42.9386 -106.7564 321° Northwest 410 472 32,000  Level Denver Center
10:10PM 43.0208 -106.8528 319° Northwest 408 470 32,000  Level Denver Center
10:11PM 43.1186 -106.9653 320° Northwest 411 473 32,000  Level Denver Center
10:12PM 43.1953 -107.0533 320° Northwest 414 476 32,000  Level Denver Center
10:13PM 43.2997 -107.1753 320° Northwest 412 474 32,000  Level Denver Center
10:14PM 43.3883 -107.2756 321° Northwest 414 476 32,000  Level Denver Center
10:15PM 43.4753 -107.3783 319° Northwest 413 475 32,000  Level Denver Center
10:16PM 43.5625 -107.4822 319° Northwest 414 476 32,000  Level Salt Lake Center
10:17PM 43.6508 -107.5867 319° Northwest 417 480 32,000 -120 Level Salt Lake Center
10:18PM 43.7403 -107.6919 320° Northwest 421 484 31,800 -1,680 Descending Salt Lake Center
10:19PM 43.8281 -107.7964 319° Northwest 418 481 28,700 -3,000 Descending Salt Lake Center
10:20PM 43.9150 -107.8967 320° Northwest 407 468 25,800 -3,000 Descending Salt Lake Center
10:21PM 43.9978 -108.0056 317° Northwest 409 471 22,700 -3,000 Descending Salt Lake Center
10:23PM 44.0739 -108.1214 312° West 406 467 19,700 -3,240 Descending Salt Lake Center
10:24PM 44.1647 -108.2619 312° West 407 468 16,200 -3,240 Descending Salt Lake Center
10:25PM 44.2356 -108.3697 313° West 396 456 13,200 -2,580 Descending Salt Lake Center
10:26PM 44.3039 -108.4742 312° West 382 440 11,000 -1,680 Descending Salt Lake Center
10:27PM 44.3622 -108.5647 312° West 351 404 9,800 -1,020 Descending Salt Lake Center
10:28PM 44.4150 -108.6433 313° West 308 354 9,000 -420 Descending Salt Lake Center
10:29PM 44.4672 -108.7261 311° West 291 335 9,000 -60 Level Salt Lake Center
10:30PM 44.5181 -108.8033 313° West 282 325 8,900 -720 Descending Salt Lake Center
10:31PM 44.5603 -108.8689 312° West 259 298 7,600 -1,320 Descending Salt Lake Center